sensor_id;sensor_type;location;lat;lon;timestamp;temperature;humidity
36352;DHT22;22382;44.768;17.206;2022-08-27T00:00:47;20.20;99.90
36352;DHT22;22382;44.768;17.206;2022-08-27T00:03:15;20.20;99.90
36352;DHT22;22382;44.768;17.206;2022-08-27T00:05:42;20.20;99.90
36352;DHT22;22382;44.768;17.206;2022-08-27T00:08:11;20.20;99.90
36352;DHT22;22382;44.768;17.206;2022-08-27T00:10:39;20.10;99.90
36352;DHT22;22382;44.768;17.206;2022-08-27T00:13:07;20.10;99.90
36352;DHT22;22382;44.768;17.206;2022-08-27T00:15:35;20.10;99.90
36352;DHT22;22382;44.768;17.206;2022-08-27T00:18:02;20.00;99.90
36352;DHT22;22382;44.768;17.206;2022-08-27T00:20:30;20.00;99.90
36352;DHT22;22382;44.768;17.206;2022-08-27T00:22:57;20.00;99.90
36352;DHT22;22382;44.768;17.206;2022-08-27T00:25:24;20.00;99.90
36352;DHT22;22382;44.768;17.206;2022-08-27T00:27:51;20.00;99.90
36352;DHT22;22382;44.768;17.206;2022-08-27T00:30:21;20.00;99.90
36352;DHT22;22382;44.768;17.206;2022-08-27T00:32:48;20.00;99.90
36352;DHT22;22382;44.768;17.206;2022-08-27T00:35:15;20.00;99.90
36352;DHT22;22382;44.768;17.206;2022-08-27T00:37:44;20.00;99.90
36352;DHT22;22382;44.768;17.206;2022-08-27T00:40:16;20.00;99.90
36352;DHT22;22382;44.768;17.206;2022-08-27T00:42:44;20.00;99.90
36352;DHT22;22382;44.768;17.206;2022-08-27T00:45:14;20.00;99.90
36352;DHT22;22382;44.768;17.206;2022-08-27T00:47:48;20.00;99.90
36352;DHT22;22382;44.768;17.206;2022-08-27T00:50:22;20.00;99.90
36352;DHT22;22382;44.768;17.206;2022-08-27T00:52:56;19.90;99.90
36352;DHT22;22382;44.768;17.206;2022-08-27T00:55:31;19.90;99.90
36352;DHT22;22382;44.768;17.206;2022-08-27T00:58:35;19.90;99.90
36352;DHT22;22382;44.768;17.206;2022-08-27T01:01:05;19.80;99.90
36352;DHT22;22382;44.768;17.206;2022-08-27T01:03:33;19.80;99.90
36352;DHT22;22382;44.768;17.206;2022-08-27T01:06:02;19.80;99.90
36352;DHT22;22382;44.768;17.206;2022-08-27T01:08:33;19.80;99.90
36352;DHT22;22382;44.768;17.206;2022-08-27T01:11:04;19.70;99.90
36352;DHT22;22382;44.768;17.206;2022-08-27T01:13:33;19.70;99.90
36352;DHT22;22382;44.768;17.206;2022-08-27T01:16:23;19.70;99.90
36352;DHT22;22382;44.768;17.206;2022-08-27T01:18:53;19.70;99.90
36352;DHT22;22382;44.768;17.206;2022-08-27T01:21:40;19.70;99.90
36352;DHT22;22382;44.768;17.206;2022-08-27T01:26:51;19.60;99.90
36352;DHT22;22382;44.768;17.206;2022-08-27T01:29:18;19.60;99.90
36352;DHT22;22382;44.768;17.206;2022-08-27T01:31:45;19.60;99.90
36352;DHT22;22382;44.768;17.206;2022-08-27T01:34:13;19.60;99.90
36352;DHT22;22382;44.768;17.206;2022-08-27T01:36:41;19.60;99.90
36352;DHT22;22382;44.768;17.206;2022-08-27T01:39:08;19.60;99.90
36352;DHT22;22382;44.768;17.206;2022-08-27T01:41:38;19.60;99.90
36352;DHT22;22382;44.768;17.206;2022-08-27T01:44:05;19.60;99.90
36352;DHT22;22382;44.768;17.206;2022-08-27T01:46:32;19.60;99.90
36352;DHT22;22382;44.768;17.206;2022-08-27T01:48:59;19.60;99.90
36352;DHT22;22382;44.768;17.206;2022-08-27T01:51:26;19.60;99.90
36352;DHT22;22382;44.768;17.206;2022-08-27T01:53:53;19.50;99.90
36352;DHT22;22382;44.768;17.206;2022-08-27T01:56:20;19.50;99.90
36352;DHT22;22382;44.768;17.206;2022-08-27T01:58:47;19.50;99.90
36352;DHT22;22382;44.768;17.206;2022-08-27T02:01:14;19.50;99.90
36352;DHT22;22382;44.768;17.206;2022-08-27T02:03:43;19.50;99.90
36352;DHT22;22382;44.768;17.206;2022-08-27T02:06:11;19.50;99.90
36352;DHT22;22382;44.768;17.206;2022-08-27T02:08:38;19.50;99.90
36352;DHT22;22382;44.768;17.206;2022-08-27T02:11:07;19.40;99.90
36352;DHT22;22382;44.768;17.206;2022-08-27T02:13:35;19.40;99.90
36352;DHT22;22382;44.768;17.206;2022-08-27T02:16:03;19.40;99.90
36352;DHT22;22382;44.768;17.206;2022-08-27T02:18:30;19.40;99.90
36352;DHT22;22382;44.768;17.206;2022-08-27T02:20:57;19.40;99.90
36352;DHT22;22382;44.768;17.206;2022-08-27T02:23:24;19.40;99.90
36352;DHT22;22382;44.768;17.206;2022-08-27T02:25:51;19.50;99.90
36352;DHT22;22382;44.768;17.206;2022-08-27T02:28:18;19.40;99.90
36352;DHT22;22382;44.768;17.206;2022-08-27T02:30:45;19.40;99.90
36352;DHT22;22382;44.768;17.206;2022-08-27T02:33:12;19.40;99.90
36352;DHT22;22382;44.768;17.206;2022-08-27T02:35:39;19.40;99.90
36352;DHT22;22382;44.768;17.206;2022-08-27T02:38:11;19.40;99.90
36352;DHT22;22382;44.768;17.206;2022-08-27T02:40:38;19.40;99.90
36352;DHT22;22382;44.768;17.206;2022-08-27T02:43:06;19.40;99.90
36352;DHT22;22382;44.768;17.206;2022-08-27T02:45:34;19.40;99.90
36352;DHT22;22382;44.768;17.206;2022-08-27T02:48:04;19.30;99.90
36352;DHT22;22382;44.768;17.206;2022-08-27T02:50:31;19.40;99.90
36352;DHT22;22382;44.768;17.206;2022-08-27T02:52:59;19.40;99.90
36352;DHT22;22382;44.768;17.206;2022-08-27T02:55:28;19.40;99.90
36352;DHT22;22382;44.768;17.206;2022-08-27T02:57:55;19.40;99.90
36352;DHT22;22382;44.768;17.206;2022-08-27T03:00:24;19.40;99.90
36352;DHT22;22382;44.768;17.206;2022-08-27T03:02:51;19.40;99.90
36352;DHT22;22382;44.768;17.206;2022-08-27T03:05:18;19.30;99.90
36352;DHT22;22382;44.768;17.206;2022-08-27T03:07:45;19.30;99.90
36352;DHT22;22382;44.768;17.206;2022-08-27T03:10:15;19.20;99.90
36352;DHT22;22382;44.768;17.206;2022-08-27T03:12:42;19.20;99.90
36352;DHT22;22382;44.768;17.206;2022-08-27T03:15:14;19.20;99.90
36352;DHT22;22382;44.768;17.206;2022-08-27T03:17:42;19.20;99.90
36352;DHT22;22382;44.768;17.206;2022-08-27T03:20:27;19.20;99.90
36352;DHT22;22382;44.768;17.206;2022-08-27T03:22:55;19.30;99.90
36352;DHT22;22382;44.768;17.206;2022-08-27T03:25:22;19.20;99.90
36352;DHT22;22382;44.768;17.206;2022-08-27T03:27:49;19.20;99.90
36352;DHT22;22382;44.768;17.206;2022-08-27T03:30:19;19.10;99.90
36352;DHT22;22382;44.768;17.206;2022-08-27T03:32:47;19.10;99.90
36352;DHT22;22382;44.768;17.206;2022-08-27T03:35:15;19.10;99.90
36352;DHT22;22382;44.768;17.206;2022-08-27T03:37:42;19.10;99.90
36352;DHT22;22382;44.768;17.206;2022-08-27T03:40:10;19.10;99.90
36352;DHT22;22382;44.768;17.206;2022-08-27T03:42:39;19.10;99.90
36352;DHT22;22382;44.768;17.206;2022-08-27T03:45:07;19.10;99.90
36352;DHT22;22382;44.768;17.206;2022-08-27T03:47:35;19.10;99.90
36352;DHT22;22382;44.768;17.206;2022-08-27T03:50:03;19.10;99.90
36352;DHT22;22382;44.768;17.206;2022-08-27T03:52:32;19.00;99.90
36352;DHT22;22382;44.768;17.206;2022-08-27T03:55:00;19.00;99.90
36352;DHT22;22382;44.768;17.206;2022-08-27T03:57:27;19.10;99.90
36352;DHT22;22382;44.768;17.206;2022-08-27T03:59:54;19.10;99.90
36352;DHT22;22382;44.768;17.206;2022-08-27T04:02:22;19.00;99.90
36352;DHT22;22382;44.768;17.206;2022-08-27T04:04:49;19.10;99.90
36352;DHT22;22382;44.768;17.206;2022-08-27T04:07:16;19.00;99.90
36352;DHT22;22382;44.768;17.206;2022-08-27T04:09:43;19.10;99.90
36352;DHT22;22382;44.768;17.206;2022-08-27T04:12:10;19.00;99.90
36352;DHT22;22382;44.768;17.206;2022-08-27T04:14:37;19.00;99.90
36352;DHT22;22382;44.768;17.206;2022-08-27T04:17:04;19.10;99.90
36352;DHT22;22382;44.768;17.206;2022-08-27T04:19:32;19.00;99.90
36352;DHT22;22382;44.768;17.206;2022-08-27T04:22:01;19.10;99.90
36352;DHT22;22382;44.768;17.206;2022-08-27T04:24:33;19.00;99.90
36352;DHT22;22382;44.768;17.206;2022-08-27T04:27:02;19.00;99.90
36352;DHT22;22382;44.768;17.206;2022-08-27T04:29:29;19.10;99.90
36352;DHT22;22382;44.768;17.206;2022-08-27T04:31:58;19.20;99.90
36352;DHT22;22382;44.768;17.206;2022-08-27T04:34:25;19.30;99.90
36352;DHT22;22382;44.768;17.206;2022-08-27T04:36:54;19.30;99.90
36352;DHT22;22382;44.768;17.206;2022-08-27T04:39:23;19.40;99.90
36352;DHT22;22382;44.768;17.206;2022-08-27T04:41:52;19.50;99.90
36352;DHT22;22382;44.768;17.206;2022-08-27T04:44:21;19.60;99.90
36352;DHT22;22382;44.768;17.206;2022-08-27T04:46:48;19.70;99.90
36352;DHT22;22382;44.768;17.206;2022-08-27T04:49:16;19.80;99.90
36352;DHT22;22382;44.768;17.206;2022-08-27T04:51:45;19.90;99.90
36352;DHT22;22382;44.768;17.206;2022-08-27T04:54:14;20.10;99.90
36352;DHT22;22382;44.768;17.206;2022-08-27T04:56:42;20.20;99.90
36352;DHT22;22382;44.768;17.206;2022-08-27T04:59:10;20.40;99.90
36352;DHT22;22382;44.768;17.206;2022-08-27T05:01:39;20.50;99.90
36352;DHT22;22382;44.768;17.206;2022-08-27T05:04:07;20.60;99.90
36352;DHT22;22382;44.768;17.206;2022-08-27T05:06:34;20.70;99.90
36352;DHT22;22382;44.768;17.206;2022-08-27T05:09:03;20.90;99.90
36352;DHT22;22382;44.768;17.206;2022-08-27T05:11:31;21.00;99.90
36352;DHT22;22382;44.768;17.206;2022-08-27T05:14:02;21.10;99.90
36352;DHT22;22382;44.768;17.206;2022-08-27T05:16:30;21.20;99.90
36352;DHT22;22382;44.768;17.206;2022-08-27T05:18:57;21.40;99.90
36352;DHT22;22382;44.768;17.206;2022-08-27T05:21:30;21.60;99.90
36352;DHT22;22382;44.768;17.206;2022-08-27T05:24:00;21.60;99.90
36352;DHT22;22382;44.768;17.206;2022-08-27T05:26:29;21.70;99.90
36352;DHT22;22382;44.768;17.206;2022-08-27T05:28:58;21.80;99.90
36352;DHT22;22382;44.768;17.206;2022-08-27T05:31:26;22.10;99.90
36352;DHT22;22382;44.768;17.206;2022-08-27T05:33:55;22.20;99.90
36352;DHT22;22382;44.768;17.206;2022-08-27T05:36:29;22.40;99.90
36352;DHT22;22382;44.768;17.206;2022-08-27T05:38:57;22.50;99.90
36352;DHT22;22382;44.768;17.206;2022-08-27T05:41:27;22.70;99.90
36352;DHT22;22382;44.768;17.206;2022-08-27T05:44:04;22.80;99.90
36352;DHT22;22382;44.768;17.206;2022-08-27T05:46:51;22.90;99.90
36352;DHT22;22382;44.768;17.206;2022-08-27T05:49:18;23.10;99.90
36352;DHT22;22382;44.768;17.206;2022-08-27T05:51:45;23.20;99.90
36352;DHT22;22382;44.768;17.206;2022-08-27T05:54:12;23.30;99.90
36352;DHT22;22382;44.768;17.206;2022-08-27T05:56:46;23.50;99.90
36352;DHT22;22382;44.768;17.206;2022-08-27T05:59:13;23.60;99.90
36352;DHT22;22382;44.768;17.206;2022-08-27T06:02:01;23.80;99.90
36352;DHT22;22382;44.768;17.206;2022-08-27T06:04:28;23.80;99.90
36352;DHT22;22382;44.768;17.206;2022-08-27T06:06:56;23.80;99.90
36352;DHT22;22382;44.768;17.206;2022-08-27T06:09:26;24.00;99.90
36352;DHT22;22382;44.768;17.206;2022-08-27T06:11:57;24.20;99.90
36352;DHT22;22382;44.768;17.206;2022-08-27T06:14:26;24.30;99.90
36352;DHT22;22382;44.768;17.206;2022-08-27T06:16:53;24.50;99.90
36352;DHT22;22382;44.768;17.206;2022-08-27T06:19:20;24.60;99.90
36352;DHT22;22382;44.768;17.206;2022-08-27T06:21:47;24.60;99.90
36352;DHT22;22382;44.768;17.206;2022-08-27T06:24:35;24.70;99.90
36352;DHT22;22382;44.768;17.206;2022-08-27T06:27:02;24.70;99.90
36352;DHT22;22382;44.768;17.206;2022-08-27T06:29:29;24.80;99.90
36352;DHT22;22382;44.768;17.206;2022-08-27T06:31:56;24.60;99.90
36352;DHT22;22382;44.768;17.206;2022-08-27T06:34:23;24.60;99.90
36352;DHT22;22382;44.768;17.206;2022-08-27T06:36:50;24.70;99.90
36352;DHT22;22382;44.768;17.206;2022-08-27T06:39:19;24.60;99.90
36352;DHT22;22382;44.768;17.206;2022-08-27T06:41:47;24.50;99.90
36352;DHT22;22382;44.768;17.206;2022-08-27T06:44:16;24.50;99.90
36352;DHT22;22382;44.768;17.206;2022-08-27T06:46:43;24.80;99.90
36352;DHT22;22382;44.768;17.206;2022-08-27T06:49:11;25.00;99.90
36352;DHT22;22382;44.768;17.206;2022-08-27T06:51:39;25.30;99.90
36352;DHT22;22382;44.768;17.206;2022-08-27T06:54:10;25.60;99.90
36352;DHT22;22382;44.768;17.206;2022-08-27T06:56:39;25.70;99.90
36352;DHT22;22382;44.768;17.206;2022-08-27T06:59:08;25.70;99.90
36352;DHT22;22382;44.768;17.206;2022-08-27T07:01:40;25.80;99.90
36352;DHT22;22382;44.768;17.206;2022-08-27T07:04:11;25.60;99.90
36352;DHT22;22382;44.768;17.206;2022-08-27T07:06:39;25.70;99.90
36352;DHT22;22382;44.768;17.206;2022-08-27T07:09:06;25.60;99.90
36352;DHT22;22382;44.768;17.206;2022-08-27T07:11:34;25.70;99.90
36352;DHT22;22382;44.768;17.206;2022-08-27T07:14:01;25.70;99.90
36352;DHT22;22382;44.768;17.206;2022-08-27T07:16:29;25.90;99.90
36352;DHT22;22382;44.768;17.206;2022-08-27T07:18:58;26.30;99.90
36352;DHT22;22382;44.768;17.206;2022-08-27T07:21:30;26.40;99.90
36352;DHT22;22382;44.768;17.206;2022-08-27T07:23:59;26.50;99.90
36352;DHT22;22382;44.768;17.206;2022-08-27T07:26:32;26.50;99.90
36352;DHT22;22382;44.768;17.206;2022-08-27T07:29:01;26.50;99.90
36352;DHT22;22382;44.768;17.206;2022-08-27T07:31:28;26.40;99.90
36352;DHT22;22382;44.768;17.206;2022-08-27T07:33:56;26.30;99.90
36352;DHT22;22382;44.768;17.206;2022-08-27T07:36:23;26.60;99.90
36352;DHT22;22382;44.768;17.206;2022-08-27T07:38:50;26.80;99.90
36352;DHT22;22382;44.768;17.206;2022-08-27T07:41:29;26.80;99.90
36352;DHT22;22382;44.768;17.206;2022-08-27T07:44:00;27.00;99.90
36352;DHT22;22382;44.768;17.206;2022-08-27T07:46:46;27.00;99.90
36352;DHT22;22382;44.768;17.206;2022-08-27T07:49:18;26.80;99.90
36352;DHT22;22382;44.768;17.206;2022-08-27T07:51:45;27.30;99.90
36352;DHT22;22382;44.768;17.206;2022-08-27T07:54:13;27.50;99.90
36352;DHT22;22382;44.768;17.206;2022-08-27T07:56:40;27.60;99.90
36352;DHT22;22382;44.768;17.206;2022-08-27T07:59:07;27.60;99.90
36352;DHT22;22382;44.768;17.206;2022-08-27T08:01:34;27.60;99.90
36352;DHT22;22382;44.768;17.206;2022-08-27T08:04:02;27.70;99.90
36352;DHT22;22382;44.768;17.206;2022-08-27T08:06:29;27.60;99.90
36352;DHT22;22382;44.768;17.206;2022-08-27T08:08:58;27.50;99.90
36352;DHT22;22382;44.768;17.206;2022-08-27T08:11:25;27.60;99.90
36352;DHT22;22382;44.768;17.206;2022-08-27T08:13:52;28.00;99.90
36352;DHT22;22382;44.768;17.206;2022-08-27T08:16:23;28.20;99.90
36352;DHT22;22382;44.768;17.206;2022-08-27T08:18:56;28.30;99.10
36352;DHT22;22382;44.768;17.206;2022-08-27T08:21:25;28.30;99.40
36352;DHT22;22382;44.768;17.206;2022-08-27T08:23:53;28.40;98.40
36352;DHT22;22382;44.768;17.206;2022-08-27T08:26:20;28.30;99.00
36352;DHT22;22382;44.768;17.206;2022-08-27T08:28:47;28.20;99.40
36352;DHT22;22382;44.768;17.206;2022-08-27T08:31:14;28.20;99.80
36352;DHT22;22382;44.768;17.206;2022-08-27T08:33:41;28.20;99.90
36352;DHT22;22382;44.768;17.206;2022-08-27T08:36:10;28.50;98.20
36352;DHT22;22382;44.768;17.206;2022-08-27T08:38:38;28.70;97.20
36352;DHT22;22382;44.768;17.206;2022-08-27T08:41:18;28.90;97.20
36352;DHT22;22382;44.768;17.206;2022-08-27T08:43:49;29.10;93.10
36352;DHT22;22382;44.768;17.206;2022-08-27T08:46:26;29.10;94.30
36352;DHT22;22382;44.768;17.206;2022-08-27T08:49:06;29.00;94.80
36352;DHT22;22382;44.768;17.206;2022-08-27T08:51:38;29.10;92.30
36352;DHT22;22382;44.768;17.206;2022-08-27T08:54:18;29.10;91.80
36352;DHT22;22382;44.768;17.206;2022-08-27T08:57:07;29.20;91.30
36352;DHT22;22382;44.768;17.206;2022-08-27T08:59:50;29.40;90.20
36352;DHT22;22382;44.768;17.206;2022-08-27T09:02:18;29.40;90.20
36352;DHT22;22382;44.768;17.206;2022-08-27T09:04:45;29.40;91.30
36352;DHT22;22382;44.768;17.206;2022-08-27T09:10:16;29.40;93.90
36352;DHT22;22382;44.768;17.206;2022-08-27T09:12:47;29.60;91.80
36352;DHT22;22382;44.768;17.206;2022-08-27T09:15:21;29.50;86.70
36352;DHT22;22382;44.768;17.206;2022-08-27T09:17:49;29.40;90.40
36352;DHT22;22382;44.768;17.206;2022-08-27T09:20:19;29.50;89.80
36352;DHT22;22382;44.768;17.206;2022-08-27T09:23:09;29.60;88.70
36352;DHT22;22382;44.768;17.206;2022-08-27T09:25:41;29.60;88.50
36352;DHT22;22382;44.768;17.206;2022-08-27T09:28:12;29.80;89.00
36352;DHT22;22382;44.768;17.206;2022-08-27T09:31:03;30.10;86.00
36352;DHT22;22382;44.768;17.206;2022-08-27T09:33:31;30.10;84.50
36352;DHT22;22382;44.768;17.206;2022-08-27T09:36:18;30.00;87.40
36352;DHT22;22382;44.768;17.206;2022-08-27T09:38:57;29.90;89.90
36352;DHT22;22382;44.768;17.206;2022-08-27T09:41:28;29.90;92.00
36352;DHT22;22382;44.768;17.206;2022-08-27T09:43:58;29.90;90.50
36352;DHT22;22382;44.768;17.206;2022-08-27T09:46:26;30.30;86.60
36352;DHT22;22382;44.768;17.206;2022-08-27T09:48:53;30.10;86.80
36352;DHT22;22382;44.768;17.206;2022-08-27T09:51:27;30.20;86.60
36352;DHT22;22382;44.768;17.206;2022-08-27T09:54:00;30.10;90.80
36352;DHT22;22382;44.768;17.206;2022-08-27T09:56:29;30.30;89.50
36352;DHT22;22382;44.768;17.206;2022-08-27T10:01:35;30.50;85.60
36352;DHT22;22382;44.768;17.206;2022-08-27T10:04:05;30.20;88.10
36352;DHT22;22382;44.768;17.206;2022-08-27T10:06:33;30.00;88.10
36352;DHT22;22382;44.768;17.206;2022-08-27T10:09:09;30.00;88.90
36352;DHT22;22382;44.768;17.206;2022-08-27T10:11:44;30.30;86.50
36352;DHT22;22382;44.768;17.206;2022-08-27T10:14:23;30.50;83.80
36352;DHT22;22382;44.768;17.206;2022-08-27T10:33:53;30.40;80.50
36352;DHT22;22382;44.768;17.206;2022-08-27T10:42:23;30.90;78.00
36352;DHT22;22382;44.768;17.206;2022-08-27T10:50:48;30.70;74.60
36352;DHT22;22382;44.768;17.206;2022-08-27T10:56:10;31.00;72.40
36352;DHT22;22382;44.768;17.206;2022-08-27T11:04:12;31.40;72.40
36352;DHT22;22382;44.768;17.206;2022-08-27T11:07:07;31.60;70.70
36352;DHT22;22382;44.768;17.206;2022-08-27T11:09:48;31.70;72.60
36352;DHT22;22382;44.768;17.206;2022-08-27T11:12:36;31.70;72.20
36352;DHT22;22382;44.768;17.206;2022-08-27T11:23:14;31.50;72.70
36352;DHT22;22382;44.768;17.206;2022-08-27T11:25:55;31.60;71.80
36352;DHT22;22382;44.768;17.206;2022-08-27T11:28:54;31.80;71.40
36352;DHT22;22382;44.768;17.206;2022-08-27T11:32:14;32.00;71.00
36352;DHT22;22382;44.768;17.206;2022-08-27T11:42:56;31.90;69.80
36352;DHT22;22382;44.768;17.206;2022-08-27T11:45:37;31.90;70.00
36352;DHT22;22382;44.768;17.206;2022-08-27T11:53:32;32.10;68.80
36352;DHT22;22382;44.768;17.206;2022-08-27T11:56:36;32.10;67.70
36352;DHT22;22382;44.768;17.206;2022-08-27T12:01:56;32.00;65.90
36352;DHT22;22382;44.768;17.206;2022-08-27T12:09:26;32.10;66.10
36352;DHT22;22382;44.768;17.206;2022-08-27T12:12:11;32.10;65.20
36352;DHT22;22382;44.768;17.206;2022-08-27T12:15:11;32.30;64.10
36352;DHT22;22382;44.768;17.206;2022-08-27T12:17:49;32.10;63.90
36352;DHT22;22382;44.768;17.206;2022-08-27T12:21:00;31.90;65.30
36352;DHT22;22382;44.768;17.206;2022-08-27T12:23:40;31.80;65.40
36352;DHT22;22382;44.768;17.206;2022-08-27T12:31:40;31.50;67.00
36352;DHT22;22382;44.768;17.206;2022-08-27T12:34:18;31.30;67.60
36352;DHT22;22382;44.768;17.206;2022-08-27T12:36:50;31.20;67.70
36352;DHT22;22382;44.768;17.206;2022-08-27T12:39:24;30.90;67.20
36352;DHT22;22382;44.768;17.206;2022-08-27T12:41:54;31.00;66.60
36352;DHT22;22382;44.768;17.206;2022-08-27T12:44:29;31.20;66.40
36352;DHT22;22382;44.768;17.206;2022-08-27T12:47:05;31.30;67.00
36352;DHT22;22382;44.768;17.206;2022-08-27T12:49:46;31.40;67.20
36352;DHT22;22382;44.768;17.206;2022-08-27T12:55:47;31.40;67.30
36352;DHT22;22382;44.768;17.206;2022-08-27T13:01:47;31.40;68.30
36352;DHT22;22382;44.768;17.206;2022-08-27T13:04:22;31.30;68.10
36352;DHT22;22382;44.768;17.206;2022-08-27T13:06:50;31.10;69.30
36352;DHT22;22382;44.768;17.206;2022-08-27T13:09:29;31.10;71.60
36352;DHT22;22382;44.768;17.206;2022-08-27T13:11:58;31.10;72.10
36352;DHT22;22382;44.768;17.206;2022-08-27T13:14:27;31.00;72.90
36352;DHT22;22382;44.768;17.206;2022-08-27T13:17:13;31.10;74.00
36352;DHT22;22382;44.768;17.206;2022-08-27T13:19:56;31.20;76.70
36352;DHT22;22382;44.768;17.206;2022-08-27T13:22:29;31.10;82.00
36352;DHT22;22382;44.768;17.206;2022-08-27T13:24:58;31.20;81.30
36352;DHT22;22382;44.768;17.206;2022-08-27T13:27:31;31.30;82.60
36352;DHT22;22382;44.768;17.206;2022-08-27T13:30:07;31.40;82.80
36352;DHT22;22382;44.768;17.206;2022-08-27T13:32:38;31.60;86.10
36352;DHT22;22382;44.768;17.206;2022-08-27T13:35:06;31.50;89.00
36352;DHT22;22382;44.768;17.206;2022-08-27T13:37:39;30.90;78.50
36352;DHT22;22382;44.768;17.206;2022-08-27T13:40:07;30.70;72.00
36352;DHT22;22382;44.768;17.206;2022-08-27T13:42:40;30.60;69.80
36352;DHT22;22382;44.768;17.206;2022-08-27T13:45:10;30.20;69.70
36352;DHT22;22382;44.768;17.206;2022-08-27T13:47:46;30.10;66.30
36352;DHT22;22382;44.768;17.206;2022-08-27T13:50:33;30.10;64.00
36352;DHT22;22382;44.768;17.206;2022-08-27T13:53:08;29.90;63.70
36352;DHT22;22382;44.768;17.206;2022-08-27T13:56:29;29.70;63.50
36352;DHT22;22382;44.768;17.206;2022-08-27T13:59:13;29.60;62.30
36352;DHT22;22382;44.768;17.206;2022-08-27T14:07:29;29.40;61.80
36352;DHT22;22382;44.768;17.206;2022-08-27T14:10:02;29.30;62.10
36352;DHT22;22382;44.768;17.206;2022-08-27T14:12:35;29.70;63.00
36352;DHT22;22382;44.768;17.206;2022-08-27T14:17:48;30.00;62.50
36352;DHT22;22382;44.768;17.206;2022-08-27T14:20:17;29.90;62.20
36352;DHT22;22382;44.768;17.206;2022-08-27T14:22:44;29.80;62.70
36352;DHT22;22382;44.768;17.206;2022-08-27T14:25:13;29.70;63.70
36352;DHT22;22382;44.768;17.206;2022-08-27T14:27:43;29.60;64.70
36352;DHT22;22382;44.768;17.206;2022-08-27T14:30:22;29.50;65.20
36352;DHT22;22382;44.768;17.206;2022-08-27T14:32:59;29.30;65.80
36352;DHT22;22382;44.768;17.206;2022-08-27T14:35:28;28.90;66.40
36352;DHT22;22382;44.768;17.206;2022-08-27T14:37:57;28.70;66.80
36352;DHT22;22382;44.768;17.206;2022-08-27T14:40:25;28.60;67.80
36352;DHT22;22382;44.768;17.206;2022-08-27T14:42:52;28.50;68.80
36352;DHT22;22382;44.768;17.206;2022-08-27T14:45:19;28.40;70.40
36352;DHT22;22382;44.768;17.206;2022-08-27T14:47:49;28.30;69.70
36352;DHT22;22382;44.768;17.206;2022-08-27T14:50:17;28.20;70.20
36352;DHT22;22382;44.768;17.206;2022-08-27T14:52:44;28.20;70.80
36352;DHT22;22382;44.768;17.206;2022-08-27T14:55:11;27.80;67.70
36352;DHT22;22382;44.768;17.206;2022-08-27T14:57:40;27.70;67.00
36352;DHT22;22382;44.768;17.206;2022-08-27T15:00:09;27.70;66.90
36352;DHT22;22382;44.768;17.206;2022-08-27T15:02:40;27.70;66.60
36352;DHT22;22382;44.768;17.206;2022-08-27T15:05:15;27.60;67.60
36352;DHT22;22382;44.768;17.206;2022-08-27T15:07:42;27.50;68.20
36352;DHT22;22382;44.768;17.206;2022-08-27T15:10:13;27.40;69.70
36352;DHT22;22382;44.768;17.206;2022-08-27T15:12:40;27.40;71.70
36352;DHT22;22382;44.768;17.206;2022-08-27T15:15:08;27.40;72.30
36352;DHT22;22382;44.768;17.206;2022-08-27T15:17:36;27.20;73.00
36352;DHT22;22382;44.768;17.206;2022-08-27T15:20:06;27.20;73.80
36352;DHT22;22382;44.768;17.206;2022-08-27T15:22:37;27.20;75.00
36352;DHT22;22382;44.768;17.206;2022-08-27T15:25:11;27.20;75.00
36352;DHT22;22382;44.768;17.206;2022-08-27T15:27:39;27.20;76.30
36352;DHT22;22382;44.768;17.206;2022-08-27T15:30:09;27.20;76.90
36352;DHT22;22382;44.768;17.206;2022-08-27T15:32:40;27.10;79.00
36352;DHT22;22382;44.768;17.206;2022-08-27T15:35:11;27.10;80.10
36352;DHT22;22382;44.768;17.206;2022-08-27T15:37:41;27.10;80.40
36352;DHT22;22382;44.768;17.206;2022-08-27T15:40:09;27.20;82.10
36352;DHT22;22382;44.768;17.206;2022-08-27T15:42:36;27.20;85.00
36352;DHT22;22382;44.768;17.206;2022-08-27T15:45:04;27.20;87.10
36352;DHT22;22382;44.768;17.206;2022-08-27T15:47:31;27.10;88.40
36352;DHT22;22382;44.768;17.206;2022-08-27T15:49:59;27.00;90.50
36352;DHT22;22382;44.768;17.206;2022-08-27T15:52:26;26.90;86.00
36352;DHT22;22382;44.768;17.206;2022-08-27T15:55:19;26.80;84.80
36352;DHT22;22382;44.768;17.206;2022-08-27T15:57:47;26.70;87.10
36352;DHT22;22382;44.768;17.206;2022-08-27T16:00:15;26.50;88.30
36352;DHT22;22382;44.768;17.206;2022-08-27T16:02:43;26.60;89.50
36352;DHT22;22382;44.768;17.206;2022-08-27T16:05:12;26.60;91.20
36352;DHT22;22382;44.768;17.206;2022-08-27T16:07:41;26.40;92.50
36352;DHT22;22382;44.768;17.206;2022-08-27T16:10:09;26.40;94.00
36352;DHT22;22382;44.768;17.206;2022-08-27T16:12:37;26.30;94.90
36352;DHT22;22382;44.768;17.206;2022-08-27T16:15:05;26.30;95.00
36352;DHT22;22382;44.768;17.206;2022-08-27T16:17:33;26.20;96.40
36352;DHT22;22382;44.768;17.206;2022-08-27T16:20:00;26.10;98.30
36352;DHT22;22382;44.768;17.206;2022-08-27T16:22:27;26.10;97.90
36352;DHT22;22382;44.768;17.206;2022-08-27T16:24:55;25.90;97.40
36352;DHT22;22382;44.768;17.206;2022-08-27T16:27:21;25.70;99.80
36352;DHT22;22382;44.768;17.206;2022-08-27T16:29:48;25.70;99.90
36352;DHT22;22382;44.768;17.206;2022-08-27T16:32:17;25.60;99.90
36352;DHT22;22382;44.768;17.206;2022-08-27T16:34:45;25.50;99.90
36352;DHT22;22382;44.768;17.206;2022-08-27T16:37:22;25.50;99.90
36352;DHT22;22382;44.768;17.206;2022-08-27T16:39:49;25.30;99.90
36352;DHT22;22382;44.768;17.206;2022-08-27T16:42:16;25.20;99.90
36352;DHT22;22382;44.768;17.206;2022-08-27T16:44:43;25.10;99.90
36352;DHT22;22382;44.768;17.206;2022-08-27T16:47:11;25.00;99.90
36352;DHT22;22382;44.768;17.206;2022-08-27T16:49:38;24.90;99.90
36352;DHT22;22382;44.768;17.206;2022-08-27T16:52:23;24.80;99.90
36352;DHT22;22382;44.768;17.206;2022-08-27T16:54:51;24.70;99.90
36352;DHT22;22382;44.768;17.206;2022-08-27T16:57:18;24.70;99.90
36352;DHT22;22382;44.768;17.206;2022-08-27T16:59:45;24.70;99.90
36352;DHT22;22382;44.768;17.206;2022-08-27T17:02:19;24.60;99.90
36352;DHT22;22382;44.768;17.206;2022-08-27T17:04:51;24.60;99.90
36352;DHT22;22382;44.768;17.206;2022-08-27T17:07:39;24.50;99.90
36352;DHT22;22382;44.768;17.206;2022-08-27T17:10:09;24.50;99.90
36352;DHT22;22382;44.768;17.206;2022-08-27T17:12:39;24.40;99.90
36352;DHT22;22382;44.768;17.206;2022-08-27T17:15:07;24.30;99.90